Time;durP1;ratioP1;P1;durP2;ratioP2;P2;SDS_P1;SDS_P2;PMS_P1;PMS_P2;Temp;Humidity;BMP_temperature;BMP_pressure;BME280_temperature;BME280_humidity;BME280_pressure;Samples;Min_cycle;Max_cycle;Signal;HPM_P1;HPM_P2
2021/03/08 00:00:26;;;;;;;;;;;16.60;50.90;;;;;;4948067;28;19926;-91
2021/03/08 00:02:53;;;;;;;;;;;16.60;50.80;;;;;;4946622;28;19934;-93
2021/03/08 00:05:20;;;;;;;;;;;16.60;51.00;;;;;;4945051;28;19927;-94
2021/03/08 00:07:47;;;;;;;;;;;16.60;51.00;;;;;;4951629;28;19927;-91
2021/03/08 00:10:14;;;;;;;;;;;16.60;51.00;;;;;;4942670;28;19982;-89
2021/03/08 00:12:41;;;;;;;;;;;16.60;51.00;;;;;;4950364;28;19935;-88
2021/03/08 00:15:08;;;;;;;;;;;16.60;51.00;;;;;;4932917;28;19935;-89
2021/03/08 00:17:34;;;;;;;;;;;16.60;51.00;;;;;;4948372;28;19950;-89
2021/03/08 00:20:08;;;;;;;;;;;16.60;51.00;;;;;;4934921;28;19927;-93
2021/03/08 00:22:34;;;;;;;;;;;16.60;51.00;;;;;;4949078;28;19943;-93
2021/03/08 00:25:01;;;;;;;;;;;16.50;51.00;;;;;;4938592;28;19958;-90
2021/03/08 00:27:27;;;;;;;;;;;16.50;51.00;;;;;;4948356;28;21672;-91
2021/03/08 00:29:53;;;;;;;;;;;16.50;51.00;;;;;;4943533;28;19930;-91
2021/03/08 00:32:19;;;;;;;;;;;16.60;51.00;;;;;;4948067;28;19926;-91
2021/03/08 00:34:46;;;;;;;;;;;16.50;51.00;;;;;;4938987;28;19931;-88
2021/03/08 00:37:12;;;;;;;;;;;16.50;51.00;;;;;;4945920;28;19927;-92
2021/03/08 00:39:38;;;;;;;;;;;16.50;51.00;;;;;;4938223;28;19934;-93
2021/03/08 00:42:04;;;;;;;;;;;16.50;51.00;;;;;;4950930;28;20299;-92
2021/03/08 00:44:31;;;;;;;;;;;16.50;51.00;;;;;;4946545;28;20031;-93
2021/03/08 00:46:57;;;;;;;;;;;16.50;51.00;;;;;;4947282;28;19937;-89
2021/03/08 00:49:23;;;;;;;;;;;16.50;51.00;;;;;;4944914;28;19945;-90
2021/03/08 00:51:50;;;;;;;;;;;16.50;51.10;;;;;;4942630;28;20020;-90
2021/03/08 00:54:16;;;;;;;;;;;16.50;51.00;;;;;;4948449;28;19933;-87
2021/03/08 00:56:42;;;;;;;;;;;16.50;51.00;;;;;;4942387;28;19930;-90
2021/03/08 00:59:09;;;;;;;;;;;16.50;51.00;;;;;;4940916;28;19926;-90
2021/03/08 01:01:35;;;;;;;;;;;16.50;51.00;;;;;;4945496;28;19927;-92
2021/03/08 01:04:02;;;;;;;;;;;16.50;51.00;;;;;;4948800;28;19926;-93
2021/03/08 01:06:31;;;;;;;;;;;16.50;50.90;;;;;;4943719;28;20409;-93
2021/03/08 01:08:57;;;;;;;;;;;16.40;50.90;;;;;;4951096;28;20380;-92
2021/03/08 01:11:23;;;;;;;;;;;16.50;50.90;;;;;;4943948;28;19921;-94
2021/03/08 01:13:49;;;;;;;;;;;16.50;50.90;;;;;;4944888;28;19933;-93
2021/03/08 01:16:16;;;;;;;;;;;16.40;50.90;;;;;;4941409;28;19926;-82
2021/03/08 01:18:42;;;;;;;;;;;16.50;50.80;;;;;;4948031;28;19974;-92
2021/03/08 01:21:08;;;;;;;;;;;16.40;50.90;;;;;;4946106;28;19930;-94
2021/03/08 01:23:35;;;;;;;;;;;16.40;50.80;;;;;;4949401;28;19933;-93
2021/03/08 01:26:01;;;;;;;;;;;16.40;50.80;;;;;;4944574;28;19938;-93
2021/03/08 01:28:27;;;;;;;;;;;16.40;50.90;;;;;;4946514;28;20303;-92
2021/03/08 01:30:55;;;;;;;;;;;16.40;50.80;;;;;;4948420;28;19934;-91
2021/03/08 01:33:22;;;;;;;;;;;16.40;50.80;;;;;;4943776;28;20013;-92
2021/03/08 01:35:49;;;;;;;;;;;16.40;50.70;;;;;;4943035;28;19933;-91
2021/03/08 01:38:15;;;;;;;;;;;16.40;50.70;;;;;;4942755;28;19926;-91
2021/03/08 01:40:41;;;;;;;;;;;16.40;50.80;;;;;;4945284;28;20314;-91
2021/03/08 01:43:08;;;;;;;;;;;16.40;50.80;;;;;;4943566;28;19942;-90
2021/03/08 01:45:35;;;;;;;;;;;16.40;50.80;;;;;;4946756;28;19927;-91
2021/03/08 01:48:02;;;;;;;;;;;16.40;50.80;;;;;;4944012;28;19940;-91
2021/03/08 01:50:28;;;;;;;;;;;16.40;50.70;;;;;;4947581;28;19935;-90
2021/03/08 01:52:55;;;;;;;;;;;16.40;50.80;;;;;;4942018;28;19933;-93
2021/03/08 01:55:21;;;;;;;;;;;16.40;50.90;;;;;;4949427;28;20350;-91
2021/03/08 01:57:48;;;;;;;;;;;16.40;50.80;;;;;;4958888;28;19934;-89
2021/03/08 02:00:21;;;;;;;;;;;16.40;50.80;;;;;;4942968;28;19926;-91
2021/03/08 02:02:47;;;;;;;;;;;16.40;50.90;;;;;;4942781;28;19938;-91
2021/03/08 02:05:16;;;;;;;;;;;16.40;50.80;;;;;;4946131;28;20416;-93
2021/03/08 02:07:42;;;;;;;;;;;16.40;50.90;;;;;;4933272;28;19943;-91
2021/03/08 02:10:09;;;;;;;;;;;16.40;50.90;;;;;;4947824;28;19950;-92
2021/03/08 02:12:48;;;;;;;;;;;16.40;50.90;;;;;;4949966;28;19933;-93
2021/03/08 02:15:23;;;;;;;;;;;16.40;50.90;;;;;;4949388;28;19926;-91
2021/03/08 02:18:08;;;;;;;;;;;16.40;50.80;;;;;;4947668;28;19927;-92
2021/03/08 02:20:40;;;;;;;;;;;16.30;50.90;;;;;;4944886;28;20399;-89
2021/03/08 02:23:19;;;;;;;;;;;16.40;51.00;;;;;;4940609;28;19935;-93
2021/03/08 02:25:48;;;;;;;;;;;16.30;51.00;;;;;;4932346;28;20717;-92
2021/03/08 02:28:14;;;;;;;;;;;16.40;50.90;;;;;;4964523;28;19934;-92
2021/03/08 02:30:43;;;;;;;;;;;16.30;51.00;;;;;;4948490;28;20737;-91
2021/03/08 02:33:10;;;;;;;;;;;16.30;51.00;;;;;;4942082;28;19946;-92
2021/03/08 02:35:39;;;;;;;;;;;16.40;51.00;;;;;;4943518;28;20380;-93
2021/03/08 02:38:14;;;;;;;;;;;16.30;51.00;;;;;;4949272;28;19926;-93
2021/03/08 02:40:42;;;;;;;;;;;16.30;51.00;;;;;;4944337;28;20008;-92
2021/03/08 02:43:12;;;;;;;;;;;16.30;51.00;;;;;;4940836;28;19935;-94
2021/03/08 02:45:40;;;;;;;;;;;16.30;51.00;;;;;;4948000;28;19926;-92
2021/03/08 02:48:06;;;;;;;;;;;16.30;51.60;;;;;;4949561;28;19934;-94
2021/03/08 02:50:34;;;;;;;;;;;16.30;51.00;;;;;;4945637;28;19935;-92
2021/03/08 02:53:04;;;;;;;;;;;16.30;51.00;;;;;;4950730;28;19934;-94
2021/03/08 02:55:37;;;;;;;;;;;16.30;51.00;;;;;;4947646;28;19975;-94
2021/03/08 02:58:05;;;;;;;;;;;16.30;51.00;;;;;;4949767;28;19927;-94
2021/03/08 03:00:31;;;;;;;;;;;16.30;51.00;;;;;;4946212;28;19934;-94
2021/03/08 03:02:59;;;;;;;;;;;16.30;51.00;;;;;;4951744;28;19933;-92
2021/03/08 03:05:26;;;;;;;;;;;16.30;51.10;;;;;;4944719;28;19936;-92
2021/03/08 03:07:53;;;;;;;;;;;16.30;51.10;;;;;;4947954;28;20020;-94
2021/03/08 03:10:24;;;;;;;;;;;16.30;51.00;;;;;;4947801;28;20017;-95
2021/03/08 03:12:52;;;;;;;;;;;16.30;51.10;;;;;;4950831;28;19941;-95
2021/03/08 03:15:19;;;;;;;;;;;16.30;51.10;;;;;;4946728;28;19954;-94
2021/03/08 03:17:46;;;;;;;;;;;16.30;51.10;;;;;;4954100;28;19958;-94
2021/03/08 03:20:13;;;;;;;;;;;16.30;51.10;;;;;;4951391;28;20473;-90
2021/03/08 03:22:40;;;;;;;;;;;16.30;51.10;;;;;;4951110;28;19930;-91
2021/03/08 03:25:07;;;;;;;;;;;16.30;51.10;;;;;;4947622;28;19934;-92
2021/03/08 03:27:33;;;;;;;;;;;16.30;51.10;;;;;;4947500;28;19969;-91
2021/03/08 03:30:00;;;;;;;;;;;16.20;51.00;;;;;;4950943;28;20399;-93
2021/03/08 03:32:27;;;;;;;;;;;16.20;51.10;;;;;;4948361;28;19937;-92
2021/03/08 03:34:54;;;;;;;;;;;16.20;51.10;;;;;;4949783;28;19926;-91
2021/03/08 03:37:21;;;;;;;;;;;16.20;51.70;;;;;;4943471;28;20417;-90
2021/03/08 03:39:48;;;;;;;;;;;16.20;51.10;;;;;;4951591;28;21213;-90
2021/03/08 03:42:15;;;;;;;;;;;16.20;51.10;;;;;;4949822;28;20387;-90
2021/03/08 03:44:41;;;;;;;;;;;16.20;51.10;;;;;;4949347;28;19932;-89
2021/03/08 03:47:08;;;;;;;;;;;16.20;51.10;;;;;;4944467;28;19934;-91
2021/03/08 03:49:34;;;;;;;;;;;16.30;51.10;;;;;;4951052;28;20414;-90
2021/03/08 03:52:01;;;;;;;;;;;16.20;51.10;;;;;;4949250;28;19935;-91
2021/03/08 03:54:27;;;;;;;;;;;16.20;51.10;;;;;;4956409;28;19926;-92
2021/03/08 03:56:56;;;;;;;;;;;16.20;51.20;;;;;;4945988;28;19927;-93
2021/03/08 03:59:50;;;;;;;;;;;16.20;51.10;;;;;;4948779;28;20583;-94
2021/03/08 04:02:22;;;;;;;;;;;16.20;51.10;;;;;;4945086;28;19926;-93
2021/03/08 04:04:52;;;;;;;;;;;16.20;51.20;;;;;;4952162;28;19927;-93
2021/03/08 04:07:19;;;;;;;;;;;16.20;51.10;;;;;;4943952;28;19927;-92
2021/03/08 04:09:56;;;;;;;;;;;16.20;51.80;;;;;;4947777;28;19927;-93
2021/03/08 04:12:24;;;;;;;;;;;16.20;51.20;;;;;;4937164;28;20813;-93
2021/03/08 04:14:51;;;;;;;;;;;16.20;51.20;;;;;;4949481;28;19933;-91
2021/03/08 04:17:18;;;;;;;;;;;16.20;51.20;;;;;;4950233;28;19927;-92
2021/03/08 04:19:44;;;;;;;;;;;16.20;51.20;;;;;;4945207;28;19942;-93
2021/03/08 04:22:11;;;;;;;;;;;16.20;51.20;;;;;;4950110;28;20563;-93
2021/03/08 04:24:39;;;;;;;;;;;16.20;51.20;;;;;;4949640;28;19934;-91
2021/03/08 04:27:07;;;;;;;;;;;16.20;51.20;;;;;;4952454;28;19935;-93
2021/03/08 04:29:36;;;;;;;;;;;16.20;51.30;;;;;;4947179;28;19934;-93
2021/03/08 04:32:14;;;;;;;;;;;16.20;51.30;;;;;;4948804;28;20233;-94
2021/03/08 04:34:41;;;;;;;;;;;16.20;51.30;;;;;;4950070;28;19970;-95
2021/03/08 04:37:08;;;;;;;;;;;16.10;51.20;;;;;;4951295;28;19930;-95
2021/03/08 04:39:36;;;;;;;;;;;16.10;51.20;;;;;;4947697;28;19933;-93
2021/03/08 04:42:06;;;;;;;;;;;16.10;51.30;;;;;;4948839;28;19927;-93
2021/03/08 04:44:36;;;;;;;;;;;16.20;51.30;;;;;;4950639;28;19930;-92
2021/03/08 04:47:03;;;;;;;;;;;16.10;51.20;;;;;;4947696;28;19941;-92
2021/03/08 04:49:32;;;;;;;;;;;16.20;51.30;;;;;;4945457;28;20388;-91
2021/03/08 04:51:58;;;;;;;;;;;16.10;51.20;;;;;;4946508;28;19941;-91
2021/03/08 04:54:25;;;;;;;;;;;16.20;51.30;;;;;;4942340;28;19935;-91
2021/03/08 04:56:52;;;;;;;;;;;16.20;51.30;;;;;;4945183;28;19938;-93
2021/03/08 04:59:18;;;;;;;;;;;16.10;51.30;;;;;;4945032;28;19933;-93
2021/03/08 05:01:45;;;;;;;;;;;16.10;51.30;;;;;;4950603;28;20399;-92
2021/03/08 05:04:12;;;;;;;;;;;16.20;51.30;;;;;;4948201;28;20522;-95
2021/03/08 05:06:39;;;;;;;;;;;16.10;51.20;;;;;;4941820;28;19933;-95
2021/03/08 05:09:16;;;;;;;;;;;16.10;51.30;;;;;;4951583;28;19914;-96
2021/03/08 05:11:43;;;;;;;;;;;16.10;51.30;;;;;;4943750;28;20267;-96
2021/03/08 05:14:12;;;;;;;;;;;16.10;51.30;;;;;;4950713;28;20283;-95
2021/03/08 05:16:42;;;;;;;;;;;16.10;51.30;;;;;;4940716;28;19934;-94
2021/03/08 05:19:14;;;;;;;;;;;16.10;51.30;;;;;;4949442;28;19933;-93
2021/03/08 05:21:40;;;;;;;;;;;16.10;51.30;;;;;;4945151;28;19934;-95
2021/03/08 05:24:07;;;;;;;;;;;16.10;51.30;;;;;;4948597;28;19941;-94
2021/03/08 05:26:35;;;;;;;;;;;16.10;51.30;;;;;;4937467;28;19933;-94
2021/03/08 05:29:07;;;;;;;;;;;16.10;51.30;;;;;;4944009;28;19937;-93
2021/03/08 05:31:39;;;;;;;;;;;16.10;51.90;;;;;;4943716;28;19930;-92
2021/03/08 05:34:06;;;;;;;;;;;16.10;51.30;;;;;;4943587;28;19927;-90
2021/03/08 05:36:34;;;;;;;;;;;16.10;51.90;;;;;;4940295;28;19926;-90
2021/03/08 05:39:01;;;;;;;;;;;16.10;51.20;;;;;;4946210;28;19927;-89
2021/03/08 05:41:35;;;;;;;;;;;16.10;51.20;;;;;;4939645;28;19927;-90
2021/03/08 05:44:03;;;;;;;;;;;16.10;51.20;;;;;;4944058;28;19930;-91
2021/03/08 05:46:44;;;;;;;;;;;16.10;51.30;;;;;;4938769;28;20391;-92
2021/03/08 05:49:37;;;;;;;;;;;16.10;51.30;;;;;;4949058;28;19934;-91
2021/03/08 05:52:15;;;;;;;;;;;16.00;51.30;;;;;;4930399;28;20378;-88
2021/03/08 05:54:46;;;;;;;;;;;16.00;51.80;;;;;;4944692;28;19946;-93
2021/03/08 05:57:25;;;;;;;;;;;16.00;51.20;;;;;;4953351;28;19935;-94
2021/03/08 06:00:26;;;;;;;;;;;16.10;51.00;;;;;;4943161;28;19994;-95
2021/03/08 06:02:54;;;;;;;;;;;16.10;50.90;;;;;;4952028;28;19926;-93
2021/03/08 06:05:36;;;;;;;;;;;16.00;50.80;;;;;;4959847;28;19926;-93
2021/03/08 06:08:02;;;;;;;;;;;16.10;50.80;;;;;;4955991;28;20009;-95
2021/03/08 06:10:32;;;;;;;;;;;16.10;50.80;;;;;;4955907;28;19926;-95
2021/03/08 06:13:01;;;;;;;;;;;16.10;50.80;;;;;;4944029;28;19926;-95
2021/03/08 06:15:29;;;;;;;;;;;16.10;50.70;;;;;;4947618;28;19934;-96
2021/03/08 06:17:55;;;;;;;;;;;16.10;50.70;;;;;;4956373;28;19930;-96
2021/03/08 06:20:22;;;;;;;;;;;16.10;50.80;;;;;;4953959;28;19985;-87
2021/03/08 06:22:49;;;;;;;;;;;16.10;50.80;;;;;;4943015;28;20079;-92
2021/03/08 06:25:19;;;;;;;;;;;16.10;50.70;;;;;;4948961;28;20442;-88
2021/03/08 06:27:47;;;;;;;;;;;16.10;50.70;;;;;;4944228;28;19927;-86
2021/03/08 06:30:14;;;;;;;;;;;16.10;50.70;;;;;;4960269;28;19927;-90
2021/03/08 06:32:40;;;;;;;;;;;16.00;50.70;;;;;;4938494;28;19923;-87
2021/03/08 06:35:06;;;;;;;;;;;16.10;50.70;;;;;;4944781;28;20280;-93
2021/03/08 06:37:34;;;;;;;;;;;16.10;51.20;;;;;;4938612;28;20386;-94
2021/03/08 06:40:00;;;;;;;;;;;16.10;51.20;;;;;;4941299;28;19974;-86
2021/03/08 06:42:27;;;;;;;;;;;16.10;51.10;;;;;;4944071;28;20510;-87
2021/03/08 06:44:53;;;;;;;;;;;16.10;51.00;;;;;;4938953;28;19935;-86
2021/03/08 06:47:20;;;;;;;;;;;16.10;50.90;;;;;;4945207;28;19926;-93
2021/03/08 06:49:47;;;;;;;;;;;16.10;50.90;;;;;;4948304;28;19973;-93
2021/03/08 06:52:21;;;;;;;;;;;16.10;50.90;;;;;;4960695;28;20225;-91
2021/03/08 06:55:01;;;;;;;;;;;16.10;51.20;;;;;;4945191;28;19973;-91
2021/03/08 06:57:37;;;;;;;;;;;16.10;51.30;;;;;;4955066;28;19938;-87
2021/03/08 07:00:08;;;;;;;;;;;16.20;51.40;;;;;;4937917;28;19982;-85
2021/03/08 07:02:36;;;;;;;;;;;16.40;51.70;;;;;;4951032;28;19927;-88
2021/03/08 07:05:03;;;;;;;;;;;16.40;51.60;;;;;;4943349;28;19933;-90
2021/03/08 07:07:45;;;;;;;;;;;16.50;51.70;;;;;;4928072;29;19966;-92
2021/03/08 07:10:12;;;;;;;;;;;16.60;51.50;;;;;;4923700;29;20403;-91
2021/03/08 07:12:47;;;;;;;;;;;16.60;51.30;;;;;;4933647;29;20002;-91
2021/03/08 07:15:24;;;;;;;;;;;16.70;51.50;;;;;;4951872;28;19926;-96
2021/03/08 07:17:50;;;;;;;;;;;16.70;51.30;;;;;;4947916;28;19958;-91
2021/03/08 07:20:24;;;;;;;;;;;16.80;51.30;;;;;;4933222;28;19966;-86
2021/03/08 07:22:51;;;;;;;;;;;16.80;51.20;;;;;;4941805;28;20002;-86
2021/03/08 07:25:20;;;;;;;;;;;16.90;51.10;;;;;;4940301;28;20025;-87
2021/03/08 07:27:52;;;;;;;;;;;16.90;51.20;;;;;;4950957;28;20383;-93
2021/03/08 07:30:23;;;;;;;;;;;16.90;51.20;;;;;;4938086;28;19938;-89
2021/03/08 07:33:00;;;;;;;;;;;17.00;51.00;;;;;;4939001;28;19996;-94
2021/03/08 07:35:47;;;;;;;;;;;17.00;51.00;;;;;;4934918;28;19934;-92
2021/03/08 07:38:14;;;;;;;;;;;17.10;51.10;;;;;;4945577;28;20068;-92
2021/03/08 07:40:42;;;;;;;;;;;17.10;50.80;;;;;;4936115;28;19958;-85
2021/03/08 07:43:19;;;;;;;;;;;17.20;50.90;;;;;;4958405;28;19934;-87
2021/03/08 07:45:45;;;;;;;;;;;17.20;50.60;;;;;;4933038;28;20189;-86
2021/03/08 07:48:15;;;;;;;;;;;17.20;50.50;;;;;;4923758;28;19941;-87
2021/03/08 07:50:42;;;;;;;;;;;17.40;50.40;;;;;;4951563;28;19914;-90
2021/03/08 07:53:28;;;;;;;;;;;17.30;49.70;;;;;;4939661;28;20384;-84
2021/03/08 07:55:59;;;;;;;;;;;17.30;49.90;;;;;;4937175;28;19930;-83
2021/03/08 07:58:27;;;;;;;;;;;17.20;49.90;;;;;;4939876;28;19933;-85
2021/03/08 08:00:53;;;;;;;;;;;17.20;49.90;;;;;;4946377;28;19933;-89
2021/03/08 08:03:20;;;;;;;;;;;17.20;49.90;;;;;;4942416;28;19927;-89
2021/03/08 08:05:55;;;;;;;;;;;17.20;49.80;;;;;;4943169;28;20288;-87
2021/03/08 08:08:23;;;;;;;;;;;17.20;49.70;;;;;;4935930;28;20384;-88
2021/03/08 08:10:51;;;;;;;;;;;17.10;50.00;;;;;;4946674;28;19941;-89
2021/03/08 08:13:18;;;;;;;;;;;17.20;51.30;;;;;;4940161;28;19931;-90
2021/03/08 08:15:46;;;;;;;;;;;17.30;51.50;;;;;;4931201;29;20054;-91
2021/03/08 08:18:15;;;;;;;;;;;17.40;52.40;;;;;;4932035;28;19934;-89
2021/03/08 08:20:42;;;;;;;;;;;17.40;51.50;;;;;;4930677;28;19934;-89
2021/03/08 08:23:08;;;;;;;;;;;17.50;51.30;;;;;;4929741;28;20435;-92
2021/03/08 08:25:39;;;;;;;;;;;17.50;51.60;;;;;;4933624;28;19953;-92
2021/03/08 08:28:06;;;;;;;;;;;17.60;51.30;;;;;;4936816;28;19927;-92
2021/03/08 08:30:34;;;;;;;;;;;17.60;51.10;;;;;;4928368;29;19926;-94
2021/03/08 08:33:01;;;;;;;;;;;17.70;50.80;;;;;;4908191;28;19959;-84
2021/03/08 08:35:32;;;;;;;;;;;17.70;50.70;;;;;;4940135;28;19930;-82
2021/03/08 08:38:11;;;;;;;;;;;17.70;50.90;;;;;;4932763;28;19957;-85
2021/03/08 08:40:38;;;;;;;;;;;17.80;50.80;;;;;;4947905;28;19977;-89
2021/03/08 08:43:13;;;;;;;;;;;17.80;50.90;;;;;;4945977;28;21295;-92
2021/03/08 08:45:41;;;;;;;;;;;17.80;50.30;;;;;;4956320;28;20005;-93
2021/03/08 08:48:12;;;;;;;;;;;17.80;50.30;;;;;;4945221;28;19989;-94
2021/03/08 08:50:44;;;;;;;;;;;17.70;50.30;;;;;;4948936;28;19934;-92
2021/03/08 08:53:11;;;;;;;;;;;17.70;50.00;;;;;;4963768;28;19996;-88
2021/03/08 08:55:38;;;;;;;;;;;17.70;50.70;;;;;;4945631;28;19935;-92
2021/03/08 08:58:40;;;;;;;;;;;17.80;51.40;;;;;;4948195;28;19932;-87
2021/03/08 09:01:09;;;;;;;;;;;17.90;51.50;;;;;;4874146;29;20549;-87
2021/03/08 09:03:55;;;;;;;;;;;18.60;49.70;;;;;;4930240;28;19934;-90
2021/03/08 09:06:41;;;;;;;;;;;19.40;47.80;;;;;;4942348;28;21278;-87
2021/03/08 09:09:32;;;;;;;;;;;20.00;46.50;;;;;;4942813;28;19934;-93
2021/03/08 09:12:09;;;;;;;;;;;20.50;45.80;;;;;;4927127;29;19926;-91
2021/03/08 09:14:53;;;;;;;;;;;20.70;45.20;;;;;;4941758;28;19926;-87
2021/03/08 09:17:27;;;;;;;;;;;21.00;45.10;;;;;;4941008;28;20165;-88
2021/03/08 09:19:57;;;;;;;;;;;21.20;44.70;;;;;;4939979;28;20366;-93
2021/03/08 09:22:23;;;;;;;;;;;21.40;44.30;;;;;;4948247;28;19934;-89
2021/03/08 09:24:53;;;;;;;;;;;21.60;44.00;;;;;;4941307;28;19935;-92
2021/03/08 09:27:23;;;;;;;;;;;21.70;43.90;;;;;;4934414;28;19949;-91
2021/03/08 09:29:52;;;;;;;;;;;21.80;43.80;;;;;;4946416;28;20394;-90
2021/03/08 09:32:18;;;;;;;;;;;21.90;43.60;;;;;;4946852;28;19954;-91
2021/03/08 09:34:45;;;;;;;;;;;22.10;43.30;;;;;;4941794;29;19927;-87
2021/03/08 09:37:13;;;;;;;;;;;22.20;43.10;;;;;;4927999;28;19927;-91
2021/03/08 09:39:50;;;;;;;;;;;22.40;43.00;;;;;;4935986;28;20596;-89
2021/03/08 09:42:16;;;;;;;;;;;22.50;42.90;;;;;;4939799;28;19934;-88
2021/03/08 09:44:47;;;;;;;;;;;22.70;42.70;;;;;;4941836;28;19927;-89
2021/03/08 09:47:14;;;;;;;;;;;22.80;42.40;;;;;;4941180;28;20534;-90
2021/03/08 09:49:53;;;;;;;;;;;22.90;42.40;;;;;;4928600;28;19926;-94
2021/03/08 09:52:49;;;;;;;;;;;23.00;42.30;;;;;;4917482;28;19937;-87
2021/03/08 09:57:46;;;;;;;;;;;23.30;41.90;;;;;;4921500;29;20509;-89
2021/03/08 10:00:14;;;;;;;;;;;23.40;41.80;;;;;;4912370;29;20018;-89
2021/03/08 10:02:42;;;;;;;;;;;23.50;41.60;;;;;;4909253;28;19931;-91
2021/03/08 10:05:10;;;;;;;;;;;23.70;41.30;;;;;;4927483;28;19934;-86
2021/03/08 10:07:54;;;;;;;;;;;23.80;41.20;;;;;;4913086;29;19939;-90
2021/03/08 10:10:23;;;;;;;;;;;23.80;41.20;;;;;;4918974;29;20021;-90
2021/03/08 10:12:56;;;;;;;;;;;23.90;41.60;;;;;;4899277;29;19935;-87
2021/03/08 10:15:22;;;;;;;;;;;24.00;40.90;;;;;;4914964;29;19938;-89
2021/03/08 10:17:52;;;;;;;;;;;24.00;40.80;;;;;;4912873;29;20365;-91
2021/03/08 10:20:18;;;;;;;;;;;24.10;40.60;;;;;;4902941;29;20025;-88
2021/03/08 10:22:45;;;;;;;;;;;24.20;40.60;;;;;;4925381;29;19926;-87
2021/03/08 10:25:37;;;;;;;;;;;24.30;40.60;;;;;;4917194;29;19966;-89
2021/03/08 10:28:09;;;;;;;;;;;24.40;40.60;;;;;;4877300;29;19931;-88
2021/03/08 10:30:37;;;;;;;;;;;24.60;40.30;;;;;;4917843;29;19923;-86
2021/03/08 10:33:05;;;;;;;;;;;23.90;38.80;;;;;;4928122;28;19974;-88
2021/03/08 10:35:34;;;;;;;;;;;23.40;39.90;;;;;;4921981;29;20021;-86
2021/03/08 10:38:24;;;;;;;;;;;23.10;40.90;;;;;;4901934;29;20072;-88
2021/03/08 10:40:53;;;;;;;;;;;22.80;43.00;;;;;;4945325;29;19951;-88
2021/03/08 10:43:35;;;;;;;;;;;22.70;43.90;;;;;;4904735;29;20280;-91
2021/03/08 10:46:02;;;;;;;;;;;22.60;44.50;;;;;;4896816;29;20489;-86
2021/03/08 10:48:29;;;;;;;;;;;22.60;44.90;;;;;;4923115;29;19957;-85
2021/03/08 10:50:57;;;;;;;;;;;22.70;45.00;;;;;;4920815;28;19934;-87
2021/03/08 10:53:53;;;;;;;;;;;22.70;44.80;;;;;;4907169;29;19926;-89
2021/03/08 10:56:19;;;;;;;;;;;22.80;45.00;;;;;;4909956;29;19935;-90
2021/03/08 10:58:51;;;;;;;;;;;22.80;44.90;;;;;;4907829;29;19927;-89
2021/03/08 11:01:18;;;;;;;;;;;22.80;45.50;;;;;;4908633;29;19930;-90
2021/03/08 11:03:45;;;;;;;;;;;22.80;45.10;;;;;;4903730;29;19958;-91
2021/03/08 11:06:12;;;;;;;;;;;22.80;45.10;;;;;;4914539;29;19966;-89
2021/03/08 11:08:39;;;;;;;;;;;22.80;45.60;;;;;;4908135;29;20013;-91
2021/03/08 11:11:19;;;;;;;;;;;22.90;45.60;;;;;;4904624;29;20013;-88
2021/03/08 11:13:49;;;;;;;;;;;22.50;47.00;;;;;;4926831;29;20394;-87
2021/03/08 11:16:18;;;;;;;;;;;22.00;47.70;;;;;;4914081;29;19969;-87
2021/03/08 11:18:45;;;;;;;;;;;21.70;48.30;;;;;;4907671;29;19938;-87
2021/03/08 11:21:21;;;;;;;;;;;21.50;48.30;;;;;;4910483;29;19930;-87
2021/03/08 11:23:48;;;;;;;;;;;21.40;48.30;;;;;;4912649;29;19935;-87
2021/03/08 11:26:15;;;;;;;;;;;21.20;48.20;;;;;;4913120;29;20574;-86
2021/03/08 11:28:43;;;;;;;;;;;21.10;48.70;;;;;;4921050;29;19934;-87
2021/03/08 11:31:19;;;;;;;;;;;21.00;48.80;;;;;;4931068;29;19942;-86
2021/03/08 11:33:49;;;;;;;;;;;20.90;49.10;;;;;;4925681;29;20511;-87
2021/03/08 11:36:32;;;;;;;;;;;20.80;49.20;;;;;;4888696;29;20300;-87
2021/03/08 11:39:06;;;;;;;;;;;20.80;49.40;;;;;;4903678;29;21377;-86
2021/03/08 11:41:34;;;;;;;;;;;20.70;49.50;;;;;;4910091;29;19930;-86
2021/03/08 11:44:01;;;;;;;;;;;20.60;49.80;;;;;;4916500;29;20282;-83
2021/03/08 11:46:28;;;;;;;;;;;20.60;49.80;;;;;;4903256;29;19935;-83
2021/03/08 11:48:59;;;;;;;;;;;20.50;49.80;;;;;;4939456;29;19930;-85
2021/03/08 11:51:26;;;;;;;;;;;20.40;50.10;;;;;;4901512;29;19934;-82
2021/03/08 11:53:52;;;;;;;;;;;20.40;50.20;;;;;;4898419;29;19933;-88
2021/03/08 11:56:19;;;;;;;;;;;20.40;52.30;;;;;;4914098;28;19911;-86
2021/03/08 11:58:46;;;;;;;;;;;20.40;52.50;;;;;;4930859;29;19958;-89
2021/03/08 12:01:22;;;;;;;;;;;20.40;52.70;;;;;;4925984;28;19966;-90
2021/03/08 12:03:49;;;;;;;;;;;20.40;53.10;;;;;;4925458;29;19983;-92
2021/03/08 12:06:15;;;;;;;;;;;20.40;53.30;;;;;;4926942;29;19934;-92
2021/03/08 12:09:17;;;;;;;;;;;20.40;53.20;;;;;;4911622;29;19961;-94
2021/03/08 12:11:43;;;;;;;;;;;20.30;53.70;;;;;;4916631;29;19935;-89
2021/03/08 12:14:10;;;;;;;;;;;20.40;53.60;;;;;;4928799;28;19934;-84
2021/03/08 12:16:36;;;;;;;;;;;20.40;52.50;;;;;;4915943;28;20418;-84
2021/03/08 12:19:03;;;;;;;;;;;20.30;52.00;;;;;;4922526;28;19970;-84
2021/03/08 12:21:30;;;;;;;;;;;20.40;51.80;;;;;;4925391;28;19935;-84
2021/03/08 12:23:57;;;;;;;;;;;20.30;52.10;;;;;;4930467;28;20017;-84
2021/03/08 12:26:23;;;;;;;;;;;20.30;52.70;;;;;;4930769;28;19933;-81
2021/03/08 12:28:51;;;;;;;;;;;20.30;52.50;;;;;;4926878;28;19990;-84
2021/03/08 12:31:18;;;;;;;;;;;20.20;52.50;;;;;;4917441;28;19931;-86
2021/03/08 12:33:47;;;;;;;;;;;20.10;52.80;;;;;;4928425;28;20188;-84
2021/03/08 12:36:13;;;;;;;;;;;20.10;52.70;;;;;;4922071;28;19933;-87
2021/03/08 12:38:45;;;;;;;;;;;20.10;52.60;;;;;;4923809;28;19982;-84
2021/03/08 12:41:12;;;;;;;;;;;20.10;52.60;;;;;;4923625;28;20265;-84
2021/03/08 12:43:39;;;;;;;;;;;20.00;52.70;;;;;;4925823;28;20600;-84
2021/03/08 12:46:05;;;;;;;;;;;19.90;52.80;;;;;;4930714;29;20014;-84
2021/03/08 12:48:32;;;;;;;;;;;19.90;52.90;;;;;;4923590;28;19934;-84
2021/03/08 12:50:58;;;;;;;;;;;19.90;53.10;;;;;;4929640;28;20283;-84
2021/03/08 12:53:28;;;;;;;;;;;19.80;53.00;;;;;;4925893;28;19933;-84
2021/03/08 12:55:54;;;;;;;;;;;19.80;53.00;;;;;;4928058;28;19934;-84
2021/03/08 12:58:21;;;;;;;;;;;19.80;53.10;;;;;;4920695;28;19926;-85
2021/03/08 13:00:47;;;;;;;;;;;19.80;53.20;;;;;;4929671;29;19941;-85
2021/03/08 13:03:14;;;;;;;;;;;19.70;53.20;;;;;;4920091;28;19935;-87
2021/03/08 13:05:42;;;;;;;;;;;19.70;56.20;;;;;;4928743;28;20532;-90
2021/03/08 13:08:09;;;;;;;;;;;19.70;55.10;;;;;;4922679;28;19970;-85
2021/03/08 13:10:37;;;;;;;;;;;19.70;54.60;;;;;;4925066;28;20377;-87
2021/03/08 13:13:04;;;;;;;;;;;19.70;54.20;;;;;;4928954;28;19937;-88
2021/03/08 13:15:30;;;;;;;;;;;19.70;54.30;;;;;;4908616;28;19927;-89
2021/03/08 13:17:56;;;;;;;;;;;19.70;53.80;;;;;;4927971;28;20406;-90
2021/03/08 13:20:23;;;;;;;;;;;19.70;54.90;;;;;;4916470;28;19958;-88
2021/03/08 13:22:49;;;;;;;;;;;19.80;57.20;;;;;;4930728;28;19927;-89
2021/03/08 13:25:16;;;;;;;;;;;19.90;55.70;;;;;;4923533;28;20639;-84
2021/03/08 13:27:44;;;;;;;;;;;19.90;54.00;;;;;;4925449;28;19935;-82
2021/03/08 13:30:12;;;;;;;;;;;19.90;54.30;;;;;;4927128;28;19935;-82
2021/03/08 13:32:38;;;;;;;;;;;19.90;51.80;;;;;;4929919;28;19934;-83
2021/03/08 13:35:06;;;;;;;;;;;19.90;49.10;;;;;;4923032;28;19927;-80
2021/03/08 13:37:33;;;;;;;;;;;19.80;49.10;;;;;;4927710;28;20075;-85
2021/03/08 13:39:59;;;;;;;;;;;19.80;47.20;;;;;;4926166;28;19962;-87
2021/03/08 13:42:28;;;;;;;;;;;19.80;47.70;;;;;;4931367;28;19927;-85
2021/03/08 13:44:54;;;;;;;;;;;19.80;47.10;;;;;;4924421;29;19934;-88
2021/03/08 13:47:21;;;;;;;;;;;19.70;49.70;;;;;;4931563;28;19981;-90
2021/03/08 13:49:47;;;;;;;;;;;19.90;50.00;;;;;;4925707;29;19926;-93
2021/03/08 13:52:16;;;;;;;;;;;20.10;50.10;;;;;;4933592;28;19990;-93
2021/03/08 13:54:45;;;;;;;;;;;20.20;50.30;;;;;;4935990;28;19927;-93
2021/03/08 13:57:12;;;;;;;;;;;20.30;50.40;;;;;;4939201;28;19946;-89
2021/03/08 13:59:39;;;;;;;;;;;20.40;50.40;;;;;;4935575;29;19986;-90
2021/03/08 14:02:05;;;;;;;;;;;20.50;50.40;;;;;;4929535;28;19986;-87
2021/03/08 14:04:31;;;;;;;;;;;20.50;51.00;;;;;;4935347;28;19986;-94
2021/03/08 14:06:58;;;;;;;;;;;20.60;50.30;;;;;;4935509;29;20289;-87
2021/03/08 14:09:24;;;;;;;;;;;20.70;50.70;;;;;;4913516;28;19937;-88
2021/03/08 14:11:50;;;;;;;;;;;20.80;51.10;;;;;;4929632;28;20407;-89
2021/03/08 14:14:19;;;;;;;;;;;20.80;50.90;;;;;;4922040;29;19914;-88
2021/03/08 14:16:46;;;;;;;;;;;20.90;51.20;;;;;;4931865;29;19978;-94
2021/03/08 14:19:20;;;;;;;;;;;21.00;51.00;;;;;;4920935;28;19931;-92
2021/03/08 14:21:46;;;;;;;;;;;21.00;50.50;;;;;;4925632;29;20017;-89
2021/03/08 14:24:12;;;;;;;;;;;21.00;50.30;;;;;;4933168;29;20339;-92
2021/03/08 14:26:39;;;;;;;;;;;21.10;50.10;;;;;;4933390;28;19939;-92
2021/03/08 14:29:05;;;;;;;;;;;21.10;50.40;;;;;;4942268;28;19986;-88
2021/03/08 14:31:34;;;;;;;;;;;21.10;50.00;;;;;;4933152;28;19934;-87